JBU271 KSAN-KLAX
Flight info
| Callsign | JBU271 |
|---|---|
| Flight time | 0h 24m |
| Altitude | 12000 |
| Route | CWARD2 SLI GOATZ2 |
| Aircraft | A320/M-SDE3FGHIRWY/LB1 |
Departure
| Time | 2026-05-04 03:27 |
|---|---|
| Airport | San Diego International Airport (KSAN) |
Arrival
| Time | 2026-05-04 03:52 |
|---|---|
| Airport | Los Angeles International Airport (KLAX) |
| Time | Latitude | Longitude | Altitude | Speed | Heading |
|---|---|---|---|---|---|
| 2026-05-04 03:02 | 32.73397 | -117.18304 | 25 ft | 0 kts | 106° |
| 2026-05-04 03:15 | 32.73401 | -117.18320 | 30 ft | 4 kts | 110° |
| 2026-05-04 03:16 | 32.73412 | -117.18349 | 25 ft | 4 kts | 123° |
| 2026-05-04 03:16 | 32.73428 | -117.18374 | 29 ft | 4 kts | 135° |
| 2026-05-04 03:16 | 32.73448 | -117.18395 | 26 ft | 4 kts | 144° |
| 2026-05-04 03:16 | 32.73468 | -117.18411 | 25 ft | 1 kts | 144° |
| 2026-05-04 03:17 | 32.73469 | -117.18412 | 28 ft | 1 kts | 144° |
| 2026-05-04 03:19 | 32.73452 | -117.18397 | 27 ft | 5 kts | 144° |
| 2026-05-04 03:20 | 32.73418 | -117.18390 | 26 ft | 6 kts | 194° |
| 2026-05-04 03:20 | 32.73373 | -117.18406 | 31 ft | 8 kts | 196° |
| 2026-05-04 03:20 | 32.73325 | -117.18378 | 29 ft | 10 kts | 106° |
| 2026-05-04 03:20 | 32.73306 | -117.18284 | 25 ft | 13 kts | 106° |
| 2026-05-04 03:21 | 32.73277 | -117.18168 | 26 ft | 16 kts | 106° |
| 2026-05-04 03:21 | 32.73244 | -117.18032 | 28 ft | 19 kts | 105° |
| 2026-05-04 03:21 | 32.73207 | -117.17881 | 24 ft | 16 kts | 106° |
| 2026-05-04 03:21 | 32.73174 | -117.17744 | 31 ft | 18 kts | 106° |
| 2026-05-04 03:22 | 32.73142 | -117.17610 | 26 ft | 7 kts | 106° |
| 2026-05-04 03:22 | 32.73121 | -117.17575 | 26 ft | 1 kts | 140° |
| 2026-05-04 03:25 | 32.73120 | -117.17574 | 24 ft | 2 kts | 140° |
| 2026-05-04 03:25 | 32.73075 | -117.17532 | 25 ft | 14 kts | 147° |
| 2026-05-04 03:26 | 32.73001 | -117.17528 | 27 ft | 7 kts | 266° |
| 2026-05-04 03:26 | 32.73015 | -117.17565 | 26 ft | 0 kts | 287° |
| 2026-05-04 03:26 | 32.73018 | -117.17577 | 29 ft | 14 kts | 287° |
| 2026-05-04 03:27 | 32.73121 | -117.18002 | 22 ft | 89 kts | 286° |
| 2026-05-04 03:27 | 32.73347 | -117.18930 | 28 ft | 142 kts | 286° |
| 2026-05-04 03:27 | 32.73629 | -117.20155 | 425 ft | 154 kts | 284° |
| 2026-05-04 03:27 | 32.74018 | -117.21334 | 1105 ft | 153 kts | 298° |
| 2026-05-04 03:28 | 32.74593 | -117.22404 | 1717 ft | 154 kts | 302° |
| 2026-05-04 03:28 | 32.75197 | -117.23455 | 2329 ft | 154 kts | 302° |
| 2026-05-04 03:28 | 32.75792 | -117.24492 | 2912 ft | 153 kts | 301° |
| 2026-05-04 03:28 | 32.76397 | -117.25556 | 3393 ft | 162 kts | 301° |
| 2026-05-04 03:29 | 32.77069 | -117.26751 | 3686 ft | 184 kts | 301° |
| 2026-05-04 03:29 | 32.77824 | -117.28101 | 3965 ft | 208 kts | 301° |
| 2026-05-04 03:29 | 32.78670 | -117.29619 | 4355 ft | 232 kts | 301° |
| 2026-05-04 03:29 | 32.79606 | -117.31300 | 4822 ft | 255 kts | 301° |
| 2026-05-04 03:30 | 32.80657 | -117.33069 | 5551 ft | 267 kts | 304° |
| 2026-05-04 03:30 | 32.81800 | -117.34839 | 6420 ft | 273 kts | 306° |
| 2026-05-04 03:30 | 32.82984 | -117.36632 | 7315 ft | 277 kts | 306° |
| 2026-05-04 03:30 | 32.84181 | -117.38452 | 8183 ft | 281 kts | 305° |
| 2026-05-04 03:31 | 32.85378 | -117.40278 | 9021 ft | 286 kts | 305° |
| 2026-05-04 03:31 | 32.86608 | -117.42163 | 9709 ft | 291 kts | 304° |
| 2026-05-04 03:31 | 32.87846 | -117.44071 | 9922 ft | 291 kts | 304° |
| 2026-05-04 03:31 | 32.89107 | -117.46033 | 9989 ft | 313 kts | 304° |
| 2026-05-04 03:32 | 32.90467 | -117.48165 | 9992 ft | 330 kts | 304° |
| 2026-05-04 03:32 | 32.91870 | -117.50354 | 9991 ft | 334 kts | 304° |
| 2026-05-04 03:32 | 32.93285 | -117.52551 | 9991 ft | 335 kts | 304° |
| 2026-05-04 03:32 | 32.94706 | -117.54755 | 9991 ft | 335 kts | 304° |
| 2026-05-04 03:33 | 32.96129 | -117.56960 | 9991 ft | 335 kts | 304° |
| 2026-05-04 03:33 | 32.97548 | -117.59167 | 9991 ft | 335 kts | 304° |
| 2026-05-04 03:33 | 32.98963 | -117.61373 | 9983 ft | 335 kts | 304° |
| 2026-05-04 03:33 | 33.00378 | -117.63578 | 9982 ft | 335 kts | 304° |
| 2026-05-04 03:34 | 33.01792 | -117.65785 | 9981 ft | 335 kts | 304° |
| 2026-05-04 03:34 | 33.03204 | -117.67992 | 9981 ft | 335 kts | 304° |
| 2026-05-04 03:34 | 33.04599 | -117.70175 | 9982 ft | 335 kts | 304° |
| 2026-05-04 03:34 | 33.06024 | -117.72372 | 9981 ft | 336 kts | 308° |
| 2026-05-04 03:35 | 33.07708 | -117.74316 | 9983 ft | 339 kts | 316° |
| 2026-05-04 03:35 | 33.09501 | -117.76135 | 9982 ft | 338 kts | 317° |
| 2026-05-04 03:35 | 33.11295 | -117.77955 | 9982 ft | 338 kts | 317° |
| 2026-05-04 03:35 | 33.13087 | -117.79775 | 9982 ft | 338 kts | 316° |
| 2026-05-04 03:36 | 33.14877 | -117.81599 | 9982 ft | 338 kts | 316° |
| 2026-05-04 03:36 | 33.16667 | -117.83423 | 9982 ft | 338 kts | 317° |
| 2026-05-04 03:36 | 33.18569 | -117.85090 | 9982 ft | 341 kts | 326° |
| 2026-05-04 03:36 | 33.20706 | -117.86330 | 9981 ft | 344 kts | 338° |
| 2026-05-04 03:37 | 33.22998 | -117.87056 | 9982 ft | 346 kts | 344° |
| 2026-05-04 03:37 | 33.25346 | -117.87691 | 9973 ft | 346 kts | 345° |
| 2026-05-04 03:37 | 33.27701 | -117.88290 | 9972 ft | 346 kts | 346° |
| 2026-05-04 03:37 | 33.30054 | -117.88871 | 9973 ft | 345 kts | 346° |
| 2026-05-04 03:38 | 33.32411 | -117.89451 | 9972 ft | 346 kts | 346° |
| 2026-05-04 03:38 | 33.34770 | -117.90032 | 9973 ft | 346 kts | 346° |
| 2026-05-04 03:38 | 33.37125 | -117.90610 | 9973 ft | 345 kts | 346° |
| 2026-05-04 03:38 | 33.39446 | -117.91300 | 9972 ft | 342 kts | 340° |
| 2026-05-04 03:39 | 33.41708 | -117.92125 | 9974 ft | 344 kts | 340° |
| 2026-05-04 03:39 | 33.43996 | -117.92957 | 10012 ft | 344 kts | 341° |
| 2026-05-04 03:39 | 33.46299 | -117.93791 | 10008 ft | 344 kts | 341° |
| 2026-05-04 03:39 | 33.48562 | -117.94610 | 10006 ft | 332 kts | 341° |
| 2026-05-04 03:40 | 33.50720 | -117.95390 | 10006 ft | 317 kts | 341° |
| 2026-05-04 03:40 | 33.52780 | -117.96137 | 10004 ft | 303 kts | 340° |
| 2026-05-04 03:40 | 33.54778 | -117.96865 | 10014 ft | 299 kts | 340° |
| 2026-05-04 03:40 | 33.56759 | -117.97588 | 9813 ft | 296 kts | 340° |
| 2026-05-04 03:41 | 33.58725 | -117.98305 | 9491 ft | 294 kts | 341° |
| 2026-05-04 03:41 | 33.60676 | -117.99019 | 9182 ft | 292 kts | 341° |
| 2026-05-04 03:41 | 33.62611 | -117.99728 | 8875 ft | 290 kts | 342° |
| 2026-05-04 03:41 | 33.64530 | -118.00430 | 8559 ft | 287 kts | 342° |
| 2026-05-04 03:42 | 33.66440 | -118.01128 | 8216 ft | 287 kts | 342° |
| 2026-05-04 03:42 | 33.68327 | -118.01817 | 7843 ft | 287 kts | 342° |
| 2026-05-04 03:42 | 33.70242 | -118.02517 | 7469 ft | 288 kts | 342° |
| 2026-05-04 03:42 | 33.72156 | -118.03218 | 7094 ft | 286 kts | 342° |
| 2026-05-04 03:43 | 33.74003 | -118.03892 | 6970 ft | 266 kts | 342° |
| 2026-05-04 03:43 | 33.75702 | -118.04511 | 6978 ft | 247 kts | 341° |
| 2026-05-04 03:43 | 33.77308 | -118.05097 | 6980 ft | 238 kts | 341° |
| 2026-05-04 03:43 | 33.78882 | -118.05697 | 6981 ft | 237 kts | 339° |
| 2026-05-04 03:44 | 33.80430 | -118.06396 | 6987 ft | 237 kts | 338° |
| 2026-05-04 03:44 | 33.82041 | -118.06720 | 6989 ft | 238 kts | 4° |
| 2026-05-04 03:44 | 33.83674 | -118.06425 | 6811 ft | 242 kts | 10° |
| 2026-05-04 03:44 | 33.85306 | -118.06021 | 6577 ft | 238 kts | 11° |
| 2026-05-04 03:45 | 33.86922 | -118.05605 | 6299 ft | 237 kts | 11° |
| 2026-05-04 03:45 | 33.88527 | -118.05189 | 6012 ft | 236 kts | 11° |
| 2026-05-04 03:45 | 33.90131 | -118.04810 | 5722 ft | 234 kts | 3° |
| 2026-05-04 03:45 | 33.91692 | -118.05158 | 5439 ft | 229 kts | 329° |
| 2026-05-04 03:46 | 33.92818 | -118.06447 | 5141 ft | 224 kts | 298° |
| 2026-05-04 03:46 | 33.93511 | -118.08120 | 4830 ft | 223 kts | 292° |
| 2026-05-04 03:46 | 33.94121 | -118.09825 | 4482 ft | 221 kts | 291° |
| 2026-05-04 03:46 | 33.94719 | -118.11521 | 4055 ft | 218 kts | 291° |
| 2026-05-04 03:47 | 33.95310 | -118.13203 | 3640 ft | 216 kts | 291° |
| 2026-05-04 03:47 | 33.95846 | -118.14784 | 3579 ft | 196 kts | 283° |
| 2026-05-04 03:47 | 33.95949 | -118.16373 | 3585 ft | 188 kts | 262° |
| 2026-05-04 03:47 | 33.95796 | -118.17898 | 3394 ft | 180 kts | 261° |
| 2026-05-04 03:48 | 33.95647 | -118.19375 | 3167 ft | 175 kts | 262° |
| 2026-05-04 03:48 | 33.95501 | -118.20817 | 2943 ft | 171 kts | 261° |
| 2026-05-04 03:48 | 33.95359 | -118.22226 | 2719 ft | 168 kts | 261° |
| 2026-05-04 03:48 | 33.95219 | -118.23619 | 2499 ft | 167 kts | 261° |
| 2026-05-04 03:49 | 33.95078 | -118.25011 | 2278 ft | 168 kts | 261° |
| 2026-05-04 03:49 | 33.94937 | -118.26404 | 2057 ft | 168 kts | 262° |
| 2026-05-04 03:49 | 33.94798 | -118.27786 | 1832 ft | 164 kts | 262° |
| 2026-05-04 03:49 | 33.94664 | -118.29114 | 1618 ft | 156 kts | 262° |
| 2026-05-04 03:50 | 33.94536 | -118.30386 | 1416 ft | 150 kts | 262° |
| 2026-05-04 03:50 | 33.94414 | -118.31587 | 1250 ft | 141 kts | 265° |
| 2026-05-04 03:50 | 33.94299 | -118.32723 | 1053 ft | 137 kts | 265° |
| 2026-05-04 03:50 | 33.94185 | -118.33853 | 869 ft | 135 kts | 265° |
| 2026-05-04 03:51 | 33.94070 | -118.34977 | 683 ft | 135 kts | 265° |
| 2026-05-04 03:51 | 33.93956 | -118.36098 | 507 ft | 135 kts | 264° |
| 2026-05-04 03:51 | 33.93848 | -118.37196 | 371 ft | 129 kts | 264° |
| 2026-05-04 03:51 | 33.93742 | -118.38246 | 173 ft | 125 kts | 263° |
| 2026-05-04 03:52 | 33.93644 | -118.39199 | 126 ft | 98 kts | 263° |
| 2026-05-04 03:52 | 33.93600 | -118.39721 | 126 ft | 18 kts | 290° |
| 2026-05-04 03:52 | 33.93629 | -118.39866 | 124 ft | 19 kts | 284° |
| 2026-05-04 03:52 | 33.93664 | -118.40024 | 124 ft | 20 kts | 282° |
| 2026-05-04 03:53 | 33.93661 | -118.40094 | 124 ft | 7 kts | 263° |
| 2026-05-04 03:53 | 33.93654 | -118.40164 | 126 ft | 10 kts | 262° |
| 2026-05-04 03:53 | 33.93643 | -118.40258 | 126 ft | 13 kts | 262° |
| 2026-05-04 03:53 | 33.93647 | -118.40314 | 126 ft | 0 kts | 294° |
| 2026-05-04 03:54 | 33.93655 | -118.40334 | 124 ft | 6 kts | 294° |
| 2026-05-04 03:54 | 33.93680 | -118.40398 | 126 ft | 10 kts | 304° |
| 2026-05-04 03:55 | 33.93753 | -118.40424 | 122 ft | 12 kts | 353° |
| 2026-05-04 03:55 | 33.93829 | -118.40449 | 121 ft | 9 kts | 296° |
| 2026-05-04 03:55 | 33.93832 | -118.40463 | 126 ft | 2 kts | 286° |
| 2026-05-04 03:55 | 33.93828 | -118.40485 | 126 ft | 4 kts | 258° |
| 2026-05-04 03:56 | 33.93836 | -118.40520 | 126 ft | 5 kts | 330° |
| 2026-05-04 03:56 | 33.93883 | -118.40529 | 124 ft | 8 kts | 1° |
| 2026-05-04 03:56 | 33.93913 | -118.40473 | 126 ft | 5 kts | 81° |
| 2026-05-04 03:56 | 33.93916 | -118.40448 | 124 ft | 4 kts | 81° |
| 2026-05-04 03:57 | 33.93919 | -118.40418 | 126 ft | 1 kts | 83° |
| 2026-05-04 03:57 | 33.93926 | -118.40407 | 123 ft | 2 kts | 35° |
| 2026-05-04 03:57 | 33.93946 | -118.40410 | 126 ft | 4 kts | 351° |
| 2026-05-04 03:57 | 33.93962 | -118.40413 | 124 ft | 1 kts | 351° |
| 2026-05-04 03:58 | 33.93973 | -118.40415 | 122 ft | 0 kts | 352° |